Terminal Aerodrome Forecast
Issued by NWS

Current Version | Previous Version | Text Only | Print | Product List | Glossary Off
Versions: 1 2 3 4 5 6 7 8 9 10 11 12 13 14

249
FTUS41 KPBZ 261044 AAA
TAFHLG
TAF AMD
KHLG 261044Z 2611/2706 00000KT 3SM BR BKN250
      TEMPO 2611/2612 1SM BR
     FM261200 VRB03KT P6SM SCT250=

USA.gov is the U.S. government's official web portal to all federal, state and local government web resources and services.